Time;durP1;ratioP1;P1;durP2;ratioP2;P2;SDS_P1;SDS_P2;PMS_P1;PMS_P2;Temp;Humidity;BMP_temperature;BMP_pressure;BME280_temperature;BME280_humidity;BME280_pressure;Samples;Min_cycle;Max_cycle;Signal;HPM_P1;HPM_P2
2023/12/12 00:03:07;;;;;;;;;65.67;50.33;;;;;;;;6492238;39;9027;-55
2023/12/12 00:09:09;;;;;;;;;62.50;48.75;;;;;;;;6492441;46;8908;-55
2023/12/12 00:15:13;;;;;;;;;61.33;51.00;;;;;;;;6491690;46;8878;-53
2023/12/12 00:21:15;;;;;;;;;71.00;55.50;;;;;;;;6493119;31;8963;-52
2023/12/12 00:27:17;;;;;;;;;65.50;53.25;;;;;;;;6491146;39;9616;-52
2023/12/12 00:33:20;;;;;;;;;61.25;50.50;;;;;;;;6489708;46;8869;-52
2023/12/12 00:39:23;;;;;;;;;73.50;57.00;;;;;;;;6491735;39;8926;-52
2023/12/12 00:45:28;;;;;;;;;70.50;57.00;;;;;;;;6491123;39;8900;-51
2023/12/12 00:51:32;;;;;;;;;58.00;47.25;;;;;;;;6492105;31;8875;-51
2023/12/12 00:57:36;;;;;;;;;63.00;48.00;;;;;;;;6491359;31;8962;-55
2023/12/12 01:03:41;;;;;;;;;55.00;46.00;;;;;;;;6492222;39;8881;-51
2023/12/12 01:09:45;;;;;;;;;62.50;47.50;;;;;;;;6492099;39;8892;-51
2023/12/12 01:15:48;;;;;;;;;61.75;49.50;;;;;;;;6490681;46;8863;-53
2023/12/12 01:21:51;;;;;;;;;55.25;47.25;;;;;;;;6492017;31;8873;-55
2023/12/12 01:27:54;;;;;;;;;67.00;51.25;;;;;;;;6491384;39;8902;-55
2023/12/12 01:33:56;;;;;;;;;61.75;50.25;;;;;;;;6491630;39;8852;-52
2023/12/12 01:39:58;;;;;;;;;64.50;48.00;;;;;;;;6491289;39;9641;-49
2023/12/12 01:46:05;;;;;;;;;67.75;50.75;;;;;;;;6491427;39;8959;-52
2023/12/12 01:52:07;;;;;;;;;56.50;44.00;;;;;;;;6510670;36;8906;-56
2023/12/12 01:58:11;;;;;;;;;64.00;51.75;;;;;;;;6492458;46;8952;-54
2023/12/12 02:04:14;;;;;;;;;58.25;48.00;;;;;;;;6491266;46;8913;-56
2023/12/12 02:10:19;;;;;;;;;45.75;41.25;;;;;;;;6492884;31;8861;-54
2023/12/12 02:16:21;;;;;;;;;57.00;46.00;;;;;;;;6491976;31;8910;-54
2023/12/12 02:22:24;;;;;;;;;45.25;41.50;;;;;;;;6491239;39;8873;-52
2023/12/12 02:28:26;;;;;;;;;60.25;46.50;;;;;;;;6491547;39;8930;-53
2023/12/12 02:34:28;;;;;;;;;46.50;40.00;;;;;;;;6491292;46;8860;-53
2023/12/12 02:40:32;;;;;;;;;55.00;42.75;;;;;;;;6492582;39;9029;-54
2023/12/12 02:46:35;;;;;;;;;56.75;47.50;;;;;;;;6312520;36;10000402;-54
2023/12/12 02:52:38;;;;;;;;;54.75;45.00;;;;;;;;6492921;39;8905;-49
2023/12/12 02:58:43;;;;;;;;;45.00;35.25;;;;;;;;6492113;39;8936;-51
2023/12/12 03:04:45;;;;;;;;;43.75;34.75;;;;;;;;6493679;39;8941;-52
2023/12/12 03:10:50;;;;;;;;;49.25;45.00;;;;;;;;6493697;39;9077;-51
2023/12/12 03:16:54;;;;;;;;;60.75;46.25;;;;;;;;6492540;46;8891;-54
2023/12/12 03:22:56;;;;;;;;;34.75;29.75;;;;;;;;6494026;39;8860;-51
2023/12/12 03:29:01;;;;;;;;;54.50;42.25;;;;;;;;6492823;46;8874;-53
2023/12/12 03:35:04;;;;;;;;;41.50;37.75;;;;;;;;6491961;39;9000;-50
2023/12/12 03:41:06;;;;;;;;;53.50;38.00;;;;;;;;6492731;46;8966;-52
2023/12/12 03:47:08;;;;;;;;;51.75;45.25;;;;;;;;6492549;39;9659;-52
2023/12/12 03:53:11;;;;;;;;;57.25;45.75;;;;;;;;6491561;46;8985;-56
2023/12/12 03:59:15;;;;;;;;;54.00;45.50;;;;;;;;6491606;39;8936;-52
2023/12/12 04:05:17;;;;;;;;;45.75;42.25;;;;;;;;6491513;39;8995;-53
2023/12/12 04:11:20;;;;;;;;;56.00;45.75;;;;;;;;6491157;46;8876;-53
2023/12/12 04:17:23;;;;;;;;;41.50;38.25;;;;;;;;6491218;39;8877;-55
2023/12/12 04:23:25;;;;;;;;;50.33;43.67;;;;;;;;6491863;39;8961;-51
2023/12/12 04:29:28;;;;;;;;;54.75;46.50;;;;;;;;6491951;39;8976;-51
2023/12/12 04:35:33;;;;;;;;;47.00;42.75;;;;;;;;6491115;39;8864;-52
2023/12/12 04:41:39;;;;;;;;;54.50;45.75;;;;;;;;6490906;46;8973;-55
2023/12/12 04:47:41;;;;;;;;;44.75;42.00;;;;;;;;6490935;39;8912;-54
2023/12/12 04:53:44;;;;;;;;;53.00;44.67;;;;;;;;6491836;39;9427;-54
2023/12/12 04:59:47;;;;;;;;;56.75;46.25;;;;;;;;6489972;46;9063;-54
2023/12/12 05:05:51;;;;;;;;;52.25;45.00;;;;;;;;6473938;39;9685;-60
2023/12/12 05:11:58;;;;;;;;;43.00;34.25;;;;;;;;6492367;39;8903;-61
2023/12/12 05:18:00;;;;;;;;;53.75;40.75;;;;;;;;6491294;39;9566;-59
2023/12/12 05:24:03;;;;;;;;;40.00;38.50;;;;;;;;6492359;31;8893;-60
2023/12/12 05:30:07;;;;;;;;;49.00;41.00;;;;;;;;6492030;39;8863;-57
2023/12/12 05:36:11;;;;;;;;;41.75;34.75;;;;;;;;6489604;39;8895;-59
2023/12/12 05:42:13;;;;;;;;;48.25;42.50;;;;;;;;6492013;46;8858;-59
2023/12/12 05:48:17;;;;;;;;;48.50;43.25;;;;;;;;6491343;46;8904;-60
2023/12/12 05:54:19;;;;;;;;;57.25;46.25;;;;;;;;6492133;31;8863;-60
2023/12/12 06:00:27;;;;;;;;;62.50;46.00;;;;;;;;6491047;39;8863;-59
2023/12/12 06:06:30;;;;;;;;;54.75;46.00;;;;;;;;6490709;31;9034;-59
2023/12/12 06:12:34;;;;;;;;;50.50;43.75;;;;;;;;6491336;39;8919;-60
2023/12/12 06:18:38;;;;;;;;;54.00;44.75;;;;;;;;6489615;46;8895;-59
2023/12/12 06:24:42;;;;;;;;;61.75;50.25;;;;;;;;6491347;39;8834;-58
2023/12/12 06:30:47;;;;;;;;;52.50;44.75;;;;;;;;6489607;31;9020;-60
2023/12/12 06:36:49;;;;;;;;;60.50;48.75;;;;;;;;6489383;39;8909;-61
2023/12/12 06:42:55;;;;;;;;;52.50;45.25;;;;;;;;6491648;31;8939;-59
2023/12/12 06:49:01;;;;;;;;;49.50;41.50;;;;;;;;6490274;39;9000;-60
2023/12/12 06:55:06;;;;;;;;;53.50;43.25;;;;;;;;6490494;39;8932;-60
2023/12/12 07:01:13;;;;;;;;;57.25;48.00;;;;;;;;6489471;47;8948;-59
2023/12/12 07:07:16;;;;;;;;;54.00;46.50;;;;;;;;6490167;39;8922;-60
2023/12/12 07:13:18;;;;;;;;;58.00;47.00;;;;;;;;6490848;39;8905;-60
2023/12/12 07:19:38;;;;;;;;;40.75;40.50;;;;;;;;6490694;39;9703;-60
2023/12/12 07:25:41;;;;;;;;;57.50;48.50;;;;;;;;6489348;46;8835;-59
2023/12/12 07:31:45;;;;;;;;;49.00;43.00;;;;;;;;6487206;39;8890;-60
2023/12/12 07:37:47;;;;;;;;;58.25;47.50;;;;;;;;6488868;47;8859;-61
2023/12/12 07:43:50;;;;;;;;;60.25;47.50;;;;;;;;6491314;31;9054;-61
2023/12/12 07:49:56;;;;;;;;;58.75;44.75;;;;;;;;6491069;39;8875;-60
2023/12/12 07:55:58;;;;;;;;;48.75;42.75;;;;;;;;6491696;39;9003;-61
2023/12/12 08:02:02;;;;;;;;;62.75;47.00;;;;;;;;6489960;39;9599;-62
2023/12/12 08:08:06;;;;;;;;;64.50;49.75;;;;;;;;6489067;39;9525;-62
2023/12/12 08:14:10;;;;;;;;;64.50;48.25;;;;;;;;6490108;39;8929;-62
2023/12/12 08:20:15;;;;;;;;;63.50;51.00;;;;;;;;6486893;31;9000;-63
2023/12/12 08:26:17;;;;;;;;;66.00;48.25;;;;;;;;6488797;31;8842;-63
2023/12/12 08:32:21;;;;;;;;;59.00;48.00;;;;;;;;6489684;46;8921;-62
2023/12/12 08:38:25;;;;;;;;;51.50;44.50;;;;;;;;6490110;39;8938;-61
2023/12/12 08:44:30;;;;;;;;;67.00;53.25;;;;;;;;6492525;31;8929;-62
2023/12/12 08:50:36;;;;;;;;;46.75;40.50;;;;;;;;6490984;39;8895;-62
2023/12/12 08:56:41;;;;;;;;;61.50;52.25;;;;;;;;6487817;39;9592;-64
2023/12/12 09:02:44;;;;;;;;;77.50;59.00;;;;;;;;6486984;46;9008;-63
2023/12/12 09:08:47;;;;;;;;;68.25;52.00;;;;;;;;6487509;31;8989;-62
2023/12/12 09:14:51;;;;;;;;;69.50;53.00;;;;;;;;6485349;39;8859;-64
2023/12/12 09:20:54;;;;;;;;;65.25;52.25;;;;;;;;6487378;31;9624;-63
2023/12/12 09:26:57;;;;;;;;;61.50;50.50;;;;;;;;6489158;39;8854;-62
2023/12/12 09:33:00;;;;;;;;;65.25;51.75;;;;;;;;6487066;39;8863;-62
2023/12/12 09:39:06;;;;;;;;;65.75;50.25;;;;;;;;6488070;39;8911;-64
2023/12/12 09:45:13;;;;;;;;;55.50;44.00;;;;;;;;6489006;39;9016;-62
2023/12/12 09:51:19;;;;;;;;;59.00;47.00;;;;;;;;6488086;31;9040;-62
2023/12/12 09:57:22;;;;;;;;;47.25;40.75;;;;;;;;6489052;39;9413;-63
2023/12/12 10:03:26;;;;;;;;;52.75;44.25;;;;;;;;6488322;39;10000;-64
2023/12/12 10:09:31;;;;;;;;;52.50;43.00;;;;;;;;6487521;39;8981;-64
2023/12/12 10:15:35;;;;;;;;;58.75;42.25;;;;;;;;6489271;31;8823;-64
2023/12/12 10:21:39;;;;;;;;;62.75;50.50;;;;;;;;6487337;31;8919;-63
2023/12/12 10:27:44;;;;;;;;;43.25;41.50;;;;;;;;6487607;39;8895;-62
2023/12/12 10:33:47;;;;;;;;;41.00;36.25;;;;;;;;6488211;31;8874;-63
2023/12/12 10:39:51;;;;;;;;;57.25;46.50;;;;;;;;6487508;31;9189;-62
2023/12/12 10:46:00;;;;;;;;;52.25;43.50;;;;;;;;6487299;39;9918;-64
2023/12/12 10:52:05;;;;;;;;;61.75;50.50;;;;;;;;6486642;31;8903;-64
2023/12/12 10:58:14;;;;;;;;;69.25;53.50;;;;;;;;6487104;31;8930;-62
2023/12/12 11:04:17;;;;;;;;;62.50;49.75;;;;;;;;6484560;39;8962;-63
2023/12/12 11:10:23;;;;;;;;;56.50;45.75;;;;;;;;6485521;39;8929;-63
2023/12/12 11:16:27;;;;;;;;;65.25;53.00;;;;;;;;6485405;31;9030;-61
2023/12/12 11:22:37;;;;;;;;;64.25;49.50;;;;;;;;6487554;39;8961;-62
2023/12/12 11:28:42;;;;;;;;;53.00;45.00;;;;;;;;6486864;31;8883;-64
2023/12/12 11:34:52;;;;;;;;;54.25;46.00;;;;;;;;6487425;39;8894;-62
2023/12/12 11:41:29;;;;;;;;;58.00;44.75;;;;;;;;6487746;39;8943;-62
2023/12/12 11:47:33;;;;;;;;;65.25;51.50;;;;;;;;6486979;31;8949;-62
2023/12/12 11:53:43;;;;;;;;;61.00;45.00;;;;;;;;6487329;46;8862;-63
2023/12/12 11:59:47;;;;;;;;;57.00;47.75;;;;;;;;6487794;39;8966;-62
2023/12/12 12:05:49;;;;;;;;;53.25;44.00;;;;;;;;6486665;39;8887;-63
2023/12/12 12:11:58;;;;;;;;;53.00;44.50;;;;;;;;6487602;31;8867;-63
2023/12/12 12:18:24;;;;;;;;;61.50;47.50;;;;;;;;6487277;31;9007;-62
2023/12/12 12:24:28;;;;;;;;;56.50;46.50;;;;;;;;6486290;39;8847;-64
2023/12/12 12:30:45;;;;;;;;;59.75;46.50;;;;;;;;6304729;46;10000803;-63
2023/12/12 12:36:49;;;;;;;;;51.75;45.25;;;;;;;;6511364;31;8934;-62
2023/12/12 12:43:00;;;;;;;;;57.50;48.25;;;;;;;;6485975;39;8933;-63
2023/12/12 12:49:10;;;;;;;;;61.75;48.00;;;;;;;;6487145;39;8943;-63
2023/12/12 12:55:19;;;;;;;;;63.00;50.50;;;;;;;;6487807;46;8895;-64
2023/12/12 13:01:36;;;;;;;;;63.00;51.00;;;;;;;;6490318;31;8952;-62
2023/12/12 13:07:38;;;;;;;;;62.25;51.25;;;;;;;;6489054;39;8929;-62
2023/12/12 13:13:43;;;;;;;;;64.00;51.25;;;;;;;;6490178;39;8912;-62
2023/12/12 13:19:49;;;;;;;;;57.00;46.25;;;;;;;;6309870;36;10000338;-61
2023/12/12 13:25:52;;;;;;;;;69.50;56.50;;;;;;;;6489131;39;13416;-63
2023/12/12 13:31:56;;;;;;;;;70.50;55.75;;;;;;;;6488521;46;9000;-62
2023/12/12 13:38:01;;;;;;;;;59.50;50.00;;;;;;;;6490717;31;8892;-62
2023/12/12 13:44:06;;;;;;;;;65.75;50.00;;;;;;;;6489518;39;9004;-63
2023/12/12 13:50:09;;;;;;;;;67.75;54.00;;;;;;;;6488626;39;8963;-62
2023/12/12 13:56:13;;;;;;;;;60.50;46.50;;;;;;;;6488522;39;8878;-61
2023/12/12 14:02:17;;;;;;;;;67.50;55.00;;;;;;;;6490040;31;8928;-62
2023/12/12 14:08:34;;;;;;;;;48.00;44.50;;;;;;;;6489057;39;8957;-61
2023/12/12 14:14:36;;;;;;;;;69.25;56.50;;;;;;;;6488697;31;8873;-60
2023/12/12 14:20:41;;;;;;;;;67.75;54.00;;;;;;;;6489366;39;9363;-62
2023/12/12 14:26:45;;;;;;;;;66.50;55.25;;;;;;;;6489317;31;8927;-63
2023/12/12 14:32:49;;;;;;;;;67.50;55.00;;;;;;;;6486762;39;9668;-62
2023/12/12 14:38:53;;;;;;;;;63.75;49.75;;;;;;;;6487663;39;8916;-63
2023/12/12 14:44:55;;;;;;;;;73.25;58.50;;;;;;;;6485964;31;9021;-62
2023/12/12 14:51:01;;;;;;;;;73.25;58.00;;;;;;;;6488928;31;8900;-62
2023/12/12 14:57:04;;;;;;;;;62.25;49.25;;;;;;;;6492198;39;8937;-63
2023/12/12 15:03:18;;;;;;;;;73.00;56.50;;;;;;;;6491220;39;8928;-60
2023/12/12 15:09:26;;;;;;;;;71.00;56.25;;;;;;;;6491055;39;8909;-61
2023/12/12 15:15:28;;;;;;;;;61.25;51.50;;;;;;;;6491863;39;8876;-61
2023/12/12 15:21:33;;;;;;;;;73.00;56.00;;;;;;;;6492564;31;8906;-61
2023/12/12 15:27:35;;;;;;;;;72.50;55.75;;;;;;;;6491684;46;8911;-61
2023/12/12 15:33:40;;;;;;;;;70.00;55.50;;;;;;;;6492510;31;8890;-60
2023/12/12 15:39:43;;;;;;;;;67.75;53.25;;;;;;;;6491532;39;8939;-61
2023/12/12 15:45:46;;;;;;;;;74.75;58.00;;;;;;;;6490860;46;8933;-61
2023/12/12 15:51:52;;;;;;;;;72.75;55.50;;;;;;;;6490832;39;8885;-61
2023/12/12 15:58:00;;;;;;;;;55.25;45.50;;;;;;;;6492442;31;8914;-61
2023/12/12 16:04:05;;;;;;;;;71.75;56.75;;;;;;;;6491715;39;8872;-61
2023/12/12 16:10:11;;;;;;;;;73.00;56.25;;;;;;;;6492321;39;9258;-61
2023/12/12 16:16:15;;;;;;;;;67.75;52.75;;;;;;;;6490548;31;8887;-60
2023/12/12 16:22:19;;;;;;;;;76.50;61.25;;;;;;;;6490978;39;8961;-60
2023/12/12 16:28:22;;;;;;;;;71.00;55.50;;;;;;;;6492511;46;9143;-63
2023/12/12 16:34:24;;;;;;;;;75.75;58.75;;;;;;;;6491061;39;9504;-61
2023/12/12 16:40:27;;;;;;;;;69.75;52.75;;;;;;;;6490492;39;8986;-60
2023/12/12 16:46:31;;;;;;;;;80.00;62.67;;;;;;;;6491780;39;8889;-62
2023/12/12 16:52:34;;;;;;;;;70.25;58.25;;;;;;;;6491721;39;9914;-61
2023/12/12 16:58:37;;;;;;;;;72.50;57.75;;;;;;;;6491786;39;8861;-62
2023/12/12 17:04:43;;;;;;;;;75.00;56.25;;;;;;;;6490690;39;9580;-63
2023/12/12 17:10:47;;;;;;;;;76.75;59.75;;;;;;;;6490665;39;8962;-61
2023/12/12 17:16:51;;;;;;;;;79.25;62.25;;;;;;;;6489827;46;9026;-61
2023/12/12 17:22:55;;;;;;;;;71.75;59.25;;;;;;;;6491497;31;8872;-61
2023/12/12 17:29:00;;;;;;;;;70.25;54.75;;;;;;;;6491445;39;9519;-61
2023/12/12 17:35:05;;;;;;;;;78.75;61.00;;;;;;;;6490103;46;8896;-63
2023/12/12 17:41:13;;;;;;;;;72.25;57.00;;;;;;;;6490979;46;8873;-62
2023/12/12 17:47:19;;;;;;;;;69.00;55.00;;;;;;;;6490545;31;8943;-62
2023/12/12 17:53:22;;;;;;;;;84.25;64.00;;;;;;;;6490784;39;8964;-61
2023/12/12 17:59:28;;;;;;;;;68.25;54.25;;;;;;;;6490927;46;8956;-60
2023/12/12 18:05:35;;;;;;;;;76.25;59.00;;;;;;;;6489966;46;8895;-60
2023/12/12 18:11:39;;;;;;;;;59.50;47.50;;;;;;;;6490443;46;8865;-61
2023/12/12 18:17:41;;;;;;;;;78.75;61.00;;;;;;;;6492567;46;8996;-60
2023/12/12 18:23:45;;;;;;;;;73.75;57.50;;;;;;;;6491542;39;8886;-60
2023/12/12 18:29:49;;;;;;;;;75.75;59.25;;;;;;;;6492108;31;8833;-62
2023/12/12 18:35:54;;;;;;;;;67.50;54.25;;;;;;;;6492205;39;9036;-61
2023/12/12 18:41:56;;;;;;;;;73.75;56.75;;;;;;;;6489905;31;8888;-58
2023/12/12 18:47:59;;;;;;;;;78.50;59.50;;;;;;;;6490691;39;9056;-61
2023/12/12 18:54:05;;;;;;;;;83.00;61.75;;;;;;;;6489092;47;8990;-58
